createdAt,value
2022-10-26T00:01:11.904Z,100253.53
2022-10-26T00:03:58.060Z,100259.00
2022-10-26T00:06:42.025Z,100254.88
2022-10-26T00:09:26.256Z,100264.09
2022-10-26T00:12:10.576Z,100311.06
2022-10-26T00:14:54.723Z,100315.19
2022-10-26T00:17:40.136Z,100315.56
2022-10-26T00:20:24.357Z,100282.53
2022-10-26T00:23:08.324Z,100294.22
2022-10-26T00:25:56.800Z,100288.63
2022-10-26T00:28:40.743Z,100313.16
2022-10-26T00:31:25.516Z,100292.75
2022-10-26T00:34:12.020Z,100254.91
2022-10-26T00:36:56.073Z,100238.44
2022-10-26T00:39:40.163Z,100304.63
2022-10-26T00:42:24.654Z,100267.66
2022-10-26T00:45:20.680Z,100307.06
2022-10-26T00:48:09.134Z,100311.91
2022-10-26T00:50:55.900Z,100311.91
2022-10-26T00:53:40.502Z,100310.94
2022-10-26T00:56:25.347Z,100310.31
2022-10-26T00:59:12.527Z,100261.00
2022-10-26T01:01:56.473Z,100301.97
2022-10-26T01:04:40.673Z,100303.56
2022-10-26T01:07:27.329Z,100301.59
2022-10-26T01:10:11.640Z,100188.09
2022-10-26T01:12:58.165Z,100303.75
2022-10-26T01:15:52.722Z,100310.34
2022-10-26T01:18:45.992Z,100317.28
2022-10-26T01:21:45.222Z,100329.63
2022-10-26T01:24:54.174Z,100333.38
2022-10-26T01:27:39.773Z,100348.38
2022-10-26T01:30:40.183Z,100345.13
2022-10-26T01:33:32.240Z,100346.38
2022-10-26T01:36:23.578Z,100347.72
2022-10-26T01:39:16.041Z,100332.88
2022-10-26T01:42:02.105Z,100337.41
2022-10-26T01:44:50.742Z,100327.81
2022-10-26T01:47:38.554Z,100336.94
2022-10-26T01:50:23.477Z,100335.72
2022-10-26T01:53:07.245Z,100327.84
2022-10-26T01:55:52.405Z,100326.78
2022-10-26T01:59:06.099Z,100322.72
2022-10-26T02:02:12.867Z,100323.31
2022-10-26T02:05:13.756Z,100283.78
2022-10-26T02:08:08.531Z,100283.22
2022-10-26T02:11:03.122Z,100324.69
2022-10-26T02:13:54.151Z,100293.88
2022-10-26T02:16:46.337Z,100290.47
2022-10-26T02:19:37.271Z,100324.44
2022-10-26T02:22:28.367Z,100296.34
2022-10-26T02:25:18.447Z,100350.13
2022-10-26T02:28:07.761Z,100320.69
2022-10-26T02:30:56.771Z,100312.28
2022-10-26T02:33:43.083Z,100347.25
2022-10-26T02:36:30.493Z,100338.31
2022-10-26T02:39:18.103Z,100305.75
2022-10-26T02:42:04.373Z,100323.59
2022-10-26T02:44:52.549Z,100342.16
2022-10-26T02:47:36.739Z,100325.78
2022-10-26T02:50:23.204Z,100321.75
2022-10-26T02:53:18.834Z,100300.28
2022-10-26T02:56:09.598Z,100308.59
2022-10-26T02:58:59.185Z,100343.44
2022-10-26T03:01:44.049Z,100345.03
2022-10-26T03:04:32.232Z,100304.22
2022-10-26T03:07:22.373Z,100301.97
2022-10-26T03:10:07.078Z,100326.50
2022-10-26T03:12:52.622Z,100360.16
2022-10-26T03:15:36.915Z,100367.19
2022-10-26T03:18:20.783Z,100323.75
2022-10-26T03:21:04.980Z,100327.97
2022-10-26T03:23:50.678Z,100381.88
2022-10-26T03:26:34.805Z,100337.38
2022-10-26T03:29:20.282Z,100343.94
2022-10-26T03:32:04.336Z,100385.88
2022-10-26T03:34:48.549Z,100371.84
2022-10-26T03:37:32.465Z,100355.56
2022-10-26T03:40:16.840Z,100369.59
2022-10-26T03:43:00.792Z,100385.47
2022-10-26T03:45:46.363Z,100374.31
2022-10-26T03:48:30.407Z,100377.97
2022-10-26T03:51:14.397Z,100378.28
2022-10-26T03:53:58.484Z,100377.00
2022-10-26T03:56:42.396Z,100401.72
2022-10-26T03:59:26.524Z,100372.00
2022-10-26T04:02:12.199Z,100397.47
2022-10-26T04:04:56.268Z,100369.94
2022-10-26T04:07:40.239Z,100385.91
2022-10-26T04:10:24.876Z,100417.16
2022-10-26T04:13:10.239Z,100377.84
2022-10-26T04:15:54.257Z,100426.19
2022-10-26T04:18:39.606Z,100428.75
2022-10-26T04:21:23.561Z,100438.09
2022-10-26T04:24:10.634Z,100434.94
2022-10-26T04:26:54.615Z,100438.09
2022-10-26T04:29:38.507Z,100409.09
2022-10-26T04:32:22.510Z,100401.88
2022-10-26T04:35:12.043Z,100453.75
2022-10-26T04:38:00.297Z,100444.72
2022-10-26T04:40:44.374Z,100442.94
2022-10-26T04:43:28.390Z,100406.47
2022-10-26T04:46:16.667Z,100454.13
2022-10-26T04:49:00.947Z,100453.84
2022-10-26T04:51:46.556Z,100436.47
2022-10-26T04:54:31.800Z,100412.94
2022-10-26T04:57:15.869Z,100415.00
2022-10-26T04:59:59.921Z,100479.56
2022-10-26T05:02:44.051Z,100440.00
2022-10-26T05:05:28.011Z,100436.63
2022-10-26T05:08:13.466Z,100495.53
2022-10-26T05:10:57.470Z,100493.88
2022-10-26T05:13:41.559Z,100469.16
2022-10-26T05:16:25.782Z,100469.19
2022-10-26T05:19:09.736Z,100495.03
2022-10-26T05:21:53.937Z,100481.38
2022-10-26T05:24:39.445Z,100530.84
2022-10-26T05:27:23.456Z,100491.88
2022-10-26T05:30:08.481Z,100547.81
2022-10-26T05:32:55.464Z,100540.81
2022-10-26T05:35:39.462Z,100507.63
2022-10-26T05:38:23.468Z,100513.31
2022-10-26T05:41:08.836Z,100511.69
2022-10-26T05:43:52.874Z,100487.47
2022-10-26T05:46:36.845Z,100529.06
2022-10-26T05:49:20.898Z,100523.63
2022-10-26T05:52:05.100Z,100544.91
2022-10-26T05:54:49.352Z,100527.91
2022-10-26T05:57:35.746Z,100561.97
2022-10-26T06:00:22.018Z,100567.56
2022-10-26T06:03:16.073Z,100535.88
2022-10-26T06:06:03.980Z,100537.94
2022-10-26T06:08:51.206Z,100561.75
2022-10-26T06:11:35.782Z,100576.50
2022-10-26T06:14:21.662Z,100570.47
2022-10-26T06:17:19.474Z,100574.66
2022-10-26T06:20:15.682Z,100575.59
2022-10-26T06:23:22.279Z,100578.66
2022-10-26T06:26:16.355Z,100553.56
2022-10-26T06:29:09.151Z,100584.91
2022-10-26T06:31:54.285Z,100548.66
2022-10-26T06:34:44.227Z,100584.13
2022-10-26T06:37:30.650Z,100569.72
2022-10-26T06:40:17.414Z,100587.69
2022-10-26T06:43:01.603Z,100597.47
2022-10-26T06:45:49.747Z,100600.81
2022-10-26T06:48:50.985Z,100605.91
2022-10-26T06:51:43.167Z,100567.47
2022-10-26T06:54:38.972Z,100604.38
2022-10-26T06:57:24.865Z,100584.81
2022-10-26T07:00:16.285Z,100618.00
2022-10-26T07:03:00.225Z,100617.88
2022-10-26T07:05:46.553Z,100598.25
2022-10-26T07:08:33.092Z,100614.88
2022-10-26T07:11:16.806Z,100608.78
2022-10-26T07:14:00.477Z,100621.56
2022-10-26T07:16:44.274Z,100626.56
2022-10-26T07:19:28.003Z,100627.63
2022-10-26T07:22:13.478Z,100618.63
2022-10-26T07:24:59.292Z,100621.41
2022-10-26T07:27:46.924Z,100631.19
2022-10-26T07:30:31.769Z,100627.06
2022-10-26T07:33:15.901Z,100604.28
2022-10-26T07:36:00.401Z,100626.22
2022-10-26T07:38:45.492Z,100625.59
2022-10-26T07:41:29.271Z,100630.75
2022-10-26T07:44:12.999Z,100620.31
2022-10-26T07:46:57.162Z,100617.81
2022-10-26T07:49:40.867Z,100623.41
2022-10-26T07:52:24.585Z,100620.44
2022-10-26T07:55:11.354Z,100619.25
2022-10-26T07:57:56.753Z,100616.50
2022-10-26T08:00:40.803Z,100621.78
2022-10-26T08:03:24.790Z,100622.16
2022-10-26T08:06:10.579Z,100620.16
2022-10-26T08:08:54.486Z,100605.50
2022-10-26T08:11:39.654Z,100598.47
2022-10-26T08:14:23.484Z,100641.25
2022-10-26T08:17:07.231Z,100638.50
2022-10-26T08:19:50.974Z,100638.31
2022-10-26T08:22:34.696Z,100635.66
2022-10-26T08:25:21.249Z,100631.66
2022-10-26T08:28:06.914Z,100637.97
2022-10-26T08:30:50.653Z,100634.31
2022-10-26T08:33:34.791Z,100616.84
2022-10-26T08:36:21.649Z,100643.91
2022-10-26T08:39:05.522Z,100636.34
2022-10-26T08:41:53.518Z,100646.38
2022-10-26T08:44:43.682Z,100640.53
2022-10-26T08:47:31.670Z,100646.69
2022-10-26T08:50:25.456Z,100640.91
2022-10-26T08:53:15.511Z,100639.03
2022-10-26T08:56:05.203Z,100606.28
2022-10-26T08:58:53.498Z,100643.91
2022-10-26T09:01:38.646Z,100644.56
2022-10-26T09:04:27.366Z,100645.50
2022-10-26T09:07:19.989Z,100606.69
2022-10-26T09:10:13.177Z,100648.59
2022-10-26T09:13:04.194Z,100642.09
2022-10-26T09:16:01.195Z,100610.59
2022-10-26T09:18:57.722Z,100619.72
2022-10-26T09:21:51.873Z,100643.88
2022-10-26T09:24:40.636Z,100636.56
2022-10-26T09:27:28.732Z,100638.97
2022-10-26T09:30:16.704Z,100641.13
2022-10-26T09:33:04.088Z,100644.47
2022-10-26T09:35:52.912Z,100631.38
2022-10-26T09:38:41.991Z,100647.31
2022-10-26T09:41:32.010Z,100649.50
2022-10-26T09:44:26.229Z,100643.56
2022-10-26T09:47:18.205Z,100658.22
2022-10-26T09:50:16.590Z,100647.53
2022-10-26T09:53:01.683Z,100643.22
2022-10-26T09:55:47.971Z,100644.19
2022-10-26T09:58:35.894Z,100653.88
2022-10-26T10:01:35.489Z,100655.75
2022-10-26T10:04:24.199Z,100631.50
2022-10-26T10:07:15.232Z,100648.94
2022-10-26T10:10:16.657Z,100643.00
2022-10-26T10:13:15.500Z,100648.50
2022-10-26T10:16:07.556Z,100652.03
2022-10-26T10:18:55.960Z,100649.06
2022-10-26T10:21:43.851Z,100635.84
2022-10-26T10:24:30.555Z,100645.19
2022-10-26T10:27:19.983Z,100643.69
2022-10-26T10:30:29.695Z,100633.91
2022-10-26T10:33:13.935Z,100640.22
2022-10-26T10:35:58.878Z,100636.53
2022-10-26T10:38:45.285Z,100598.06
2022-10-26T10:41:32.046Z,100623.00
2022-10-26T10:44:24.091Z,100630.50
2022-10-26T10:47:08.664Z,100638.59
2022-10-26T10:49:55.815Z,100638.03
2022-10-26T10:52:39.562Z,100628.00
2022-10-26T10:55:24.022Z,100627.44
2022-10-26T10:58:20.389Z,100639.72
2022-10-26T11:01:08.067Z,100623.44
2022-10-26T11:04:09.939Z,100624.13
2022-10-26T11:06:58.589Z,100610.81
2022-10-26T11:09:46.283Z,100625.72
2022-10-26T11:15:26.066Z,100632.06
2022-10-26T11:18:16.670Z,100603.50
2022-10-26T11:21:05.911Z,100628.09
2022-10-26T11:23:55.674Z,100620.44
2022-10-26T11:26:46.206Z,100628.25
2022-10-26T11:29:39.857Z,100616.22
2022-10-26T11:32:30.360Z,100631.25
2022-10-26T11:35:19.795Z,100633.78
2022-10-26T11:38:11.232Z,100595.75
2022-10-26T11:41:02.037Z,100635.50
2022-10-26T11:43:48.436Z,100624.41
2022-10-26T11:46:36.778Z,100620.75
2022-10-26T11:49:27.806Z,100621.91
2022-10-26T11:52:18.826Z,100622.81
2022-10-26T11:55:04.913Z,100627.38
2022-10-26T11:57:49.635Z,100624.41
2022-10-26T12:00:35.623Z,100607.16
2022-10-26T12:03:24.707Z,100609.03
2022-10-26T12:06:08.618Z,100607.00
2022-10-26T12:09:00.882Z,100599.47
2022-10-26T12:11:49.470Z,100583.03
2022-10-26T12:14:40.770Z,100619.69
2022-10-26T12:17:30.834Z,100626.19
2022-10-26T12:20:36.452Z,100630.94
2022-10-26T12:23:33.810Z,100607.25
2022-10-26T12:26:56.030Z,100616.16
2022-10-26T12:29:45.889Z,100628.63
2022-10-26T12:32:51.806Z,100633.72
2022-10-26T12:35:41.411Z,100632.88
2022-10-26T12:39:06.380Z,100631.53
2022-10-26T12:41:59.007Z,100636.84
2022-10-26T12:45:03.257Z,100616.66
2022-10-26T12:48:34.783Z,100647.63
2022-10-26T12:51:44.048Z,100647.31
2022-10-26T12:54:40.101Z,100649.06
2022-10-26T12:57:32.104Z,100640.72
2022-10-26T13:00:18.442Z,100643.41
2022-10-26T13:03:13.960Z,100647.38
2022-10-26T13:06:22.847Z,100655.72
2022-10-26T13:09:17.627Z,100654.03
2022-10-26T13:12:05.602Z,100651.59
2022-10-26T13:15:01.526Z,100649.06
2022-10-26T13:17:56.462Z,100649.91
2022-10-26T13:20:55.174Z,100622.88
2022-10-26T13:23:41.497Z,100657.00
2022-10-26T13:26:27.149Z,100538.94
2022-10-26T13:29:12.323Z,100630.34
2022-10-26T13:31:59.017Z,100660.81
2022-10-26T13:34:45.475Z,100661.25
2022-10-26T13:37:32.610Z,100666.78
2022-10-26T13:40:19.651Z,100660.13
2022-10-26T13:43:05.545Z,100669.47
2022-10-26T13:45:55.311Z,100666.31
2022-10-26T13:48:42.916Z,100667.16
2022-10-26T13:51:38.588Z,100647.47
2022-10-26T13:54:29.335Z,100656.41
2022-10-26T13:57:19.325Z,100673.66
2022-10-26T14:00:09.780Z,100679.06
2022-10-26T14:02:55.668Z,100680.34
2022-10-26T14:05:45.880Z,100651.50
2022-10-26T14:08:29.902Z,100680.09
2022-10-26T14:11:16.862Z,100692.75
2022-10-26T14:14:01.809Z,100694.72
2022-10-26T14:16:47.605Z,100697.53
2022-10-26T14:19:35.135Z,100694.56
2022-10-26T14:22:24.954Z,100699.47
2022-10-26T14:25:26.724Z,100702.78
2022-10-26T14:28:24.648Z,100678.97
2022-10-26T14:31:18.158Z,100718.69
2022-10-26T14:34:06.352Z,100718.69
2022-10-26T14:36:53.695Z,100729.94
2022-10-26T14:39:43.929Z,100720.66
2022-10-26T14:42:31.715Z,100697.22
2022-10-26T14:45:47.515Z,100739.50
2022-10-26T14:48:35.262Z,100706.47
2022-10-26T14:51:21.275Z,100724.69
2022-10-26T14:54:05.650Z,100741.16
2022-10-26T14:56:51.501Z,100734.75
2022-10-26T14:59:35.559Z,100748.88
2022-10-26T15:02:22.525Z,100752.75
2022-10-26T15:05:20.477Z,100752.03
2022-10-26T15:08:04.393Z,100752.34
2022-10-26T15:10:49.485Z,100759.75
2022-10-26T15:13:36.287Z,100728.13
2022-10-26T15:16:21.896Z,100747.00
2022-10-26T15:19:10.921Z,100762.56
2022-10-26T15:21:55.431Z,100774.63
2022-10-26T15:24:40.440Z,100781.44
2022-10-26T15:27:25.041Z,100772.75
2022-10-26T15:30:28.161Z,100790.34
2022-10-26T15:33:22.244Z,100792.22
2022-10-26T15:36:17.151Z,100793.41
2022-10-26T15:39:01.189Z,100803.44
2022-10-26T15:41:48.034Z,100807.22
2022-10-26T15:44:31.747Z,100806.19
2022-10-26T15:47:20.727Z,100813.38
2022-10-26T15:50:04.832Z,100821.22
2022-10-26T15:52:49.643Z,100815.16
2022-10-26T15:55:33.469Z,100828.03
2022-10-26T15:58:17.356Z,100823.22
2022-10-26T16:01:01.114Z,100826.56
2022-10-26T16:03:46.379Z,100826.56
2022-10-26T16:06:32.006Z,100836.59
2022-10-26T16:09:17.859Z,100846.31
2022-10-26T16:12:01.664Z,100847.38
2022-10-26T16:15:04.324Z,100848.00
2022-10-26T16:17:49.714Z,100846.69
2022-10-26T16:20:35.386Z,100857.84
2022-10-26T16:23:19.080Z,100854.41
2022-10-26T16:26:05.548Z,100857.97
2022-10-26T16:28:49.637Z,100861.06
2022-10-26T16:31:33.361Z,100831.25
2022-10-26T16:34:17.434Z,100825.53
2022-10-26T16:37:02.761Z,100829.81
2022-10-26T16:39:46.657Z,100824.94
2022-10-26T16:42:32.417Z,100832.94
2022-10-26T16:45:17.109Z,100872.78
2022-10-26T16:48:05.816Z,100839.00
2022-10-26T16:50:49.768Z,100880.25
2022-10-26T16:53:35.285Z,100877.34
2022-10-26T16:56:20.973Z,100850.53
2022-10-26T16:59:05.005Z,100891.56
2022-10-26T17:01:48.993Z,100870.97
2022-10-26T17:04:33.068Z,100870.53
2022-10-26T17:07:17.042Z,100900.47
2022-10-26T17:10:02.408Z,100850.00
2022-10-26T17:12:47.544Z,100864.06
2022-10-26T17:15:31.674Z,100900.28
2022-10-26T17:18:15.776Z,100859.09
2022-10-26T17:20:59.962Z,100903.44
2022-10-26T17:23:44.033Z,100896.59
2022-10-26T17:26:29.781Z,100865.97
2022-10-26T17:29:14.344Z,100868.59
2022-10-26T17:31:58.378Z,100904.25
2022-10-26T17:34:42.366Z,100901.22
2022-10-26T17:37:26.469Z,100886.19
2022-10-26T17:40:11.618Z,100874.63
2022-10-26T17:42:57.770Z,100908.69
2022-10-26T17:45:41.941Z,100875.25
2022-10-26T17:48:26.146Z,100923.66
2022-10-26T17:51:13.315Z,100896.63
2022-10-26T17:53:59.271Z,100880.59
2022-10-26T17:56:43.297Z,100918.06
2022-10-26T17:59:29.062Z,100894.09
2022-10-26T18:02:13.311Z,100872.97
2022-10-26T18:04:57.306Z,100910.94
2022-10-26T18:07:41.511Z,100920.16
2022-10-26T18:10:37.563Z,100878.44
2022-10-26T18:13:22.309Z,100884.34
2022-10-26T18:16:10.735Z,100910.28
2022-10-26T18:19:00.684Z,100920.47
2022-10-26T18:21:46.034Z,100885.41
2022-10-26T18:24:29.918Z,100906.56
2022-10-26T18:27:13.906Z,100930.53
2022-10-26T18:29:57.723Z,100938.53
2022-10-26T18:32:43.041Z,100938.41
2022-10-26T18:35:26.916Z,100939.84
2022-10-26T18:38:10.958Z,100910.19
2022-10-26T18:40:55.251Z,100945.06
2022-10-26T18:43:41.759Z,100950.88
2022-10-26T18:46:28.317Z,100945.63
2022-10-26T18:49:14.368Z,100952.66
2022-10-26T18:51:58.532Z,100930.97
2022-10-26T18:54:42.387Z,100962.25
2022-10-26T18:57:28.665Z,100964.63
2022-10-26T19:00:13.993Z,100971.81
2022-10-26T19:02:58.391Z,100974.47
2022-10-26T19:05:43.927Z,100961.34
2022-10-26T19:08:28.119Z,100971.47
2022-10-26T19:11:13.535Z,100972.91
2022-10-26T19:13:57.739Z,100969.53
2022-10-26T19:16:46.796Z,100988.06
2022-10-26T19:19:31.370Z,100982.00
2022-10-26T19:22:16.730Z,100979.91
2022-10-26T19:25:00.853Z,100937.72
2022-10-26T19:27:47.147Z,100952.81
2022-10-26T19:30:31.168Z,100987.88
2022-10-26T19:33:15.005Z,100982.72
2022-10-26T19:36:02.262Z,100981.81
2022-10-26T19:38:47.557Z,100983.34
2022-10-26T19:41:31.545Z,100978.44
2022-10-26T19:44:17.290Z,100996.91
2022-10-26T19:47:02.644Z,100985.56
2022-10-26T19:49:46.484Z,100997.72
2022-10-26T19:52:30.309Z,101000.16
2022-10-26T19:55:15.581Z,100950.00
2022-10-26T19:57:59.453Z,100988.31
2022-10-26T20:00:44.103Z,100996.66
2022-10-26T20:03:29.109Z,100981.97
2022-10-26T20:06:14.149Z,101007.59
2022-10-26T20:08:57.909Z,101003.91
2022-10-26T20:11:43.496Z,101014.38
2022-10-26T20:14:27.184Z,101008.78
2022-10-26T20:17:10.982Z,101023.47
2022-10-26T20:19:55.920Z,101018.47
2022-10-26T20:22:39.655Z,101002.53
2022-10-26T20:25:23.440Z,101022.06
2022-10-26T20:28:08.568Z,100979.28
2022-10-26T20:30:52.223Z,101021.25
2022-10-26T20:33:35.988Z,101014.81
2022-10-26T20:36:19.916Z,101019.75
2022-10-26T20:39:05.934Z,101010.88
2022-10-26T20:41:50.311Z,100993.03
2022-10-26T20:44:42.905Z,100971.94
2022-10-26T20:47:27.291Z,100987.47
2022-10-26T20:50:13.403Z,101017.84
2022-10-26T20:53:00.464Z,101025.19
2022-10-26T20:55:49.909Z,100992.75
2022-10-26T20:58:41.600Z,101014.22
2022-10-26T21:01:29.519Z,101014.34
2022-10-26T21:04:13.596Z,101023.16
2022-10-26T21:06:57.593Z,101017.13
2022-10-26T21:09:41.611Z,101016.47
2022-10-26T21:12:25.597Z,100939.69
2022-10-26T21:15:10.650Z,101020.69
2022-10-26T21:17:56.060Z,100983.69
2022-10-26T21:20:40.004Z,101003.94
2022-10-26T21:23:23.931Z,100980.34
2022-10-26T21:26:08.652Z,100976.09
2022-10-26T21:28:52.630Z,100945.09
2022-10-26T21:31:36.511Z,101016.09
2022-10-26T21:34:21.922Z,100975.47
2022-10-26T21:37:05.901Z,101005.31
2022-10-26T21:39:49.834Z,100966.63
2022-10-26T21:42:33.812Z,100969.56
2022-10-26T21:45:17.850Z,100995.34
2022-10-26T21:48:01.843Z,101016.09
2022-10-26T21:50:47.204Z,100977.09
2022-10-26T21:53:31.324Z,100974.84
2022-10-26T21:56:18.553Z,101024.56
2022-10-26T21:59:02.597Z,101021.78
2022-10-26T22:01:46.772Z,101030.69
2022-10-26T22:04:30.754Z,100991.66
2022-10-26T22:07:17.178Z,100952.13
2022-10-26T22:10:10.553Z,101023.81
2022-10-26T22:12:54.865Z,101026.47
2022-10-26T22:15:38.866Z,100987.44
2022-10-26T22:18:22.927Z,101023.09
2022-10-26T22:21:08.358Z,101036.41
2022-10-26T22:23:54.229Z,100997.94
2022-10-26T22:26:38.864Z,101001.56
2022-10-26T22:29:22.787Z,101036.94
2022-10-26T22:32:07.034Z,100997.53
2022-10-26T22:35:00.315Z,101044.38
2022-10-26T22:37:55.933Z,101005.59
2022-10-26T22:40:41.281Z,101002.81
2022-10-26T22:43:25.484Z,101031.44
2022-10-26T22:46:12.871Z,100965.81
2022-10-26T22:48:58.119Z,101044.41
2022-10-26T22:51:42.141Z,101043.41
2022-10-26T22:54:25.961Z,101042.25
2022-10-26T22:57:11.345Z,101024.72
2022-10-26T22:59:55.338Z,101001.44
2022-10-26T23:02:39.394Z,101012.47
2022-10-26T23:05:23.290Z,101041.53
2022-10-26T23:08:07.268Z,101011.22
2022-10-26T23:10:51.168Z,101036.94
2022-10-26T23:13:36.647Z,101039.00
2022-10-26T23:16:20.646Z,101007.19
2022-10-26T23:19:04.580Z,101043.72
2022-10-26T23:21:48.507Z,101046.63
2022-10-26T23:24:32.460Z,100999.69
2022-10-26T23:27:16.439Z,101042.16
2022-10-26T23:30:01.847Z,101046.91
2022-10-26T23:32:47.203Z,101044.19
2022-10-26T23:35:31.379Z,101012.19
2022-10-26T23:38:15.294Z,101049.72
2022-10-26T23:41:00.618Z,101028.59
2022-10-26T23:43:44.594Z,101030.31
2022-10-26T23:46:29.961Z,101057.00
2022-10-26T23:49:13.972Z,101058.66
2022-10-26T23:51:57.907Z,101017.19
2022-10-26T23:54:41.907Z,101053.22
2022-10-26T23:57:25.939Z,101009.81
